»·PEaware :: N816LP PDZ-KSNA

N816LP :: PDZ-KSNA

FLIGHT INFORMATION

Flight Status: Arrived
Operator: Privately registered:
United States
More flights under this callsign
Pilot: Ian H. (8262)
Aircraft: Unknown
(0)
More flights by this aircraft type
Origin: PDZ Pedernales
Venezuela
Destination: KSNA John Wayne-Orange Co
United States
More flights between these airports :: More routes between these airports
Route: +PDZ PDZ270/013 RNDAL V363 POXKU V8 SLI
File this flight plan on PilotEdge
Remarks:
Altitude:
(Current/Filed)
8,000ft
Speed:
(Current/Filed)
150kts
Departed: 04-Oct-18 06:01 PM
Arrived: 04-Oct-18 06:52 PM
Distance/Time
Traveled:
3362nm/0:51
Distance/Time
To Go:
Arrived

Flight Plot

Page will automatically refresh every two minutes.

Flight plan parsing failed; only flown route is shown


Map Options




Map Legend


Flown Route
Filed Route
Departure Airport
Arrival Airport
Navaid (VOR, NDB)
Fix

Horizontal Profiles

Position Reports

Time Latitude Longitude Heading Altitude Ground
Speed
04-Oct-18 18:02 33.923638 -117.015952 260 7751ft 116kts
04-Oct-18 18:03 33.920551 -117.041453 261 7872ft 107kts
04-Oct-18 18:04 33.916174 -117.076477 261 7877ft 104kts
04-Oct-18 18:05 33.911317 -117.110442 257 7879ft 102kts
04-Oct-18 18:06 33.904883 -117.142853 256 7886ft 101kts
04-Oct-18 18:07 33.899511 -117.170181 257 7882ft 100kts
04-Oct-18 18:08 33.892095 -117.207963 257 7886ft 99kts
04-Oct-18 18:09 33.889007 -117.234041 292 7927ft 112kts
04-Oct-18 18:10 33.921504 -117.235810 5 8277ft 130kts
04-Oct-18 18:11 33.958073 -117.227026 5 8456ft 143kts
04-Oct-18 18:12 33.980537 -117.195364 108 8455ft 161kts
04-Oct-18 18:13 33.975471 -117.174537 108 8451ft 163kts
04-Oct-18 18:14 33.975471 -117.174537 108 8451ft 163kts
04-Oct-18 18:15 33.975471 -117.174537 108 8451ft 163kts
04-Oct-18 18:16 33.965900 -117.152396 138 8455ft 160kts
04-Oct-18 18:17 33.930968 -117.133810 230 8453ft 142kts
04-Oct-18 18:18 33.921820 -117.178506 259 8346ft 134kts
04-Oct-18 18:19 33.915302 -117.219699 259 8287ft 107kts
04-Oct-18 18:20 33.910773 -117.248353 258 8280ft 67kts
04-Oct-18 18:21 33.901692 -117.274084 259 8773ft 101kts
04-Oct-18 18:22 33.896638 -117.307722 259 9633ft 105kts
04-Oct-18 18:23 33.889956 -117.350042 255 9365ft 126kts
04-Oct-18 18:24 33.893509 -117.394929 274 7798ft 155kts
04-Oct-18 18:25 33.896621 -117.453773 271 4349ft 194kts
04-Oct-18 18:26 33.911094 -117.497918 285 3934ft 86kts
04-Oct-18 18:27 33.916407 -117.521540 285 4606ft 85kts
04-Oct-18 18:28 33.922973 -117.555377 268 4960ft 148kts
04-Oct-18 18:29 33.932497 -117.608512 287 4463ft 156kts
04-Oct-18 18:30 33.945337 -117.654904 286 3951ft 140kts
04-Oct-18 18:31 33.956323 -117.697061 287 3971ft 124kts
04-Oct-18 18:32 33.967611 -117.742020 286 4103ft 153kts
04-Oct-18 18:33 33.975963 -117.790240 245 4094ft 149kts
04-Oct-18 18:34 33.937355 -117.791148 172 4094ft 149kts
04-Oct-18 18:35 33.903800 -117.786743 176 4090ft 146kts
04-Oct-18 18:36 33.903800 -117.786743 176 4090ft 146kts
04-Oct-18 18:37 33.841222 -117.809267 257 3970ft 108kts
04-Oct-18 18:38 33.836391 -117.839467 292 3911ft 79kts
04-Oct-18 18:39 33.848298 -117.846732 214 4453ft 61kts
04-Oct-18 18:40 33.852801 -117.871192 7 4164ft 158kts
04-Oct-18 18:41 33.891520 -117.843785 30 3943ft 153kts
04-Oct-18 18:42 33.927013 -117.820406 26 3953ft 142kts
04-Oct-18 18:43 33.942216 -117.784356 111 3888ft 151kts
04-Oct-18 18:44 33.926960 -117.736292 111 3409ft 153kts
04-Oct-18 18:45 33.898992 -117.721470 215 2985ft 140kts
04-Oct-18 18:46 33.867530 -117.744321 215 2858ft 125kts
04-Oct-18 18:47 33.850039 -117.774563 255 2854ft 109kts
04-Oct-18 18:48 33.827025 -117.792804 190 2825ft 113kts
04-Oct-18 18:49 33.794738 -117.797525 199 2516ft 130kts
04-Oct-18 18:50 33.763980 -117.812510 208 1852ft 106kts
04-Oct-18 18:51 33.739447 -117.827692 209 1315ft 96kts
04-Oct-18 18:52 33.714975 -117.843200 209 812ft 99kts
04-Oct-18 18:53 33.692282 -117.858341 211 320ft 77kts
04-Oct-18 18:54 33.675594 -117.868774 185 48ft 18kts
04-Oct-18 18:55 33.674225 -117.868263 122 48ft 7kts
04-Oct-18 19:07 33.673703 -117.867133 115 46ft 0kts
04-Oct-18 19:08 33.673703 -117.867133 114 8046ft 0kts
04-Oct-18 19:09 33.673703 -117.867133 114 8500ft 0kts

Navigation Log

Ident Type
Flight plan parsing failed, navigation log unavailable